createdAt,value
2023-04-21T00:02:07.512Z,11.97
2023-04-21T00:04:35.977Z,13.43
2023-04-21T00:07:05.776Z,13.47
2023-04-21T00:09:34.028Z,13.87
2023-04-21T00:12:02.257Z,14.03
2023-04-21T00:14:30.553Z,13.23
2023-04-21T00:17:00.403Z,12.80
2023-04-21T00:19:28.970Z,12.90
2023-04-21T00:21:59.076Z,13.93
2023-04-21T00:24:28.883Z,13.03
2023-04-21T00:26:57.248Z,14.33
2023-04-21T00:29:25.902Z,13.57
2023-04-21T00:31:54.256Z,12.70
2023-04-21T00:34:22.557Z,13.07
2023-04-21T00:36:50.747Z,14.50
2023-04-21T00:39:19.255Z,12.53
2023-04-21T00:41:49.829Z,13.53
2023-04-21T00:44:18.146Z,12.97
2023-04-21T00:46:46.469Z,13.90
2023-04-21T00:49:16.360Z,14.23
2023-04-21T00:51:44.826Z,13.70
2023-04-21T00:54:13.432Z,14.27
2023-04-21T00:56:41.697Z,13.27
2023-04-21T00:59:11.453Z,13.13
2023-04-21T01:01:42.391Z,13.40
2023-04-21T01:04:11.331Z,13.43
2023-04-21T01:06:39.833Z,12.37
2023-04-21T01:09:08.172Z,12.90
2023-04-21T01:11:38.640Z,14.53
2023-04-21T01:14:08.948Z,13.63
2023-04-21T01:16:40.388Z,14.20
2023-04-21T01:19:08.733Z,13.10
2023-04-21T01:21:41.728Z,14.43
2023-04-21T01:24:10.128Z,14.20
2023-04-21T01:26:38.460Z,13.90
2023-04-21T01:29:06.832Z,13.73
2023-04-21T01:31:35.273Z,15.50
2023-04-21T01:34:05.352Z,14.47
2023-04-21T01:36:33.731Z,14.50
2023-04-21T01:39:04.213Z,16.37
2023-04-21T01:41:32.735Z,15.53
2023-04-21T01:44:01.206Z,15.57
2023-04-21T01:46:29.525Z,16.00
2023-04-21T01:48:58.025Z,17.50
2023-04-21T01:51:27.718Z,17.03
2023-04-21T01:53:55.966Z,17.40
2023-04-21T01:56:26.871Z,17.57
2023-04-21T01:58:56.013Z,19.40
2023-04-21T02:01:25.085Z,19.07
2023-04-21T02:03:53.554Z,21.60
2023-04-21T02:06:21.924Z,20.23
2023-04-21T02:08:50.232Z,21.20
2023-04-21T02:11:18.545Z,21.80
2023-04-21T02:13:48.133Z,23.37
2023-04-21T02:16:16.482Z,23.77
2023-04-21T02:18:48.411Z,23.97
2023-04-21T02:21:16.716Z,24.63
2023-04-21T02:23:44.953Z,22.47
2023-04-21T02:26:13.180Z,26.63
2023-04-21T02:28:41.422Z,26.13
2023-04-21T02:31:11.265Z,25.97
2023-04-21T02:33:39.726Z,27.23
2023-04-21T02:36:08.412Z,27.00
2023-04-21T02:38:36.678Z,28.23
2023-04-21T02:41:05.066Z,29.60
2023-04-21T02:43:35.168Z,27.43
2023-04-21T02:46:07.655Z,32.57
2023-04-21T02:48:37.826Z,29.47
2023-04-21T02:51:12.964Z,29.57
2023-04-21T02:53:41.930Z,29.40
2023-04-21T02:56:10.615Z,30.80
2023-04-21T02:58:39.825Z,31.30
2023-04-21T03:01:08.260Z,34.67
2023-04-21T03:03:37.963Z,30.37
2023-04-21T03:06:07.236Z,30.90
2023-04-21T03:08:35.853Z,31.07
2023-04-21T03:11:04.151Z,32.67
2023-04-21T03:13:32.397Z,34.03
2023-04-21T03:16:00.834Z,34.83
2023-04-21T03:18:29.158Z,33.70
2023-04-21T03:21:01.992Z,33.13
2023-04-21T03:23:30.325Z,35.80
2023-04-21T03:25:58.582Z,31.10
2023-04-21T03:28:27.006Z,32.63
2023-04-21T03:30:55.388Z,33.23
2023-04-21T03:33:23.600Z,32.50
2023-04-21T03:35:51.956Z,32.43
2023-04-21T03:38:21.775Z,32.43
2023-04-21T03:40:50.382Z,31.90
2023-04-21T03:43:18.649Z,30.37
2023-04-21T03:45:47.687Z,30.70
2023-04-21T03:48:16.071Z,31.80
2023-04-21T03:50:44.310Z,30.40
2023-04-21T03:53:12.868Z,35.50
2023-04-21T03:55:42.518Z,30.43
2023-04-21T03:58:10.733Z,33.47
2023-04-21T04:00:39.065Z,31.10
2023-04-21T04:03:07.648Z,31.47
2023-04-21T04:05:37.290Z,31.80
2023-04-21T04:08:06.540Z,30.37
2023-04-21T04:10:34.803Z,30.40
2023-04-21T04:13:04.414Z,30.80
2023-04-21T04:15:32.832Z,30.70
2023-04-21T04:18:01.733Z,33.13
2023-04-21T04:20:30.319Z,32.93
2023-04-21T04:22:58.616Z,33.57
2023-04-21T04:25:27.230Z,30.70
2023-04-21T04:27:55.667Z,30.50
2023-04-21T04:30:28.010Z,30.70
2023-04-21T04:32:57.833Z,31.50
2023-04-21T04:35:26.194Z,34.70
2023-04-21T04:37:55.068Z,32.37
2023-04-21T04:40:23.526Z,33.17
2023-04-21T04:42:52.415Z,31.27
2023-04-21T04:45:21.399Z,30.97
2023-04-21T04:47:51.830Z,32.57
2023-04-21T04:50:20.319Z,29.53
2023-04-21T04:52:49.770Z,31.87
2023-04-21T04:55:18.823Z,33.37
2023-04-21T04:57:47.001Z,33.37
2023-04-21T05:00:15.865Z,32.33
2023-04-21T05:02:44.269Z,31.50
2023-04-21T05:05:14.269Z,31.43
2023-04-21T05:07:42.684Z,34.13
2023-04-21T05:10:11.129Z,33.70
2023-04-21T05:12:39.375Z,34.37
2023-04-21T05:15:08.699Z,32.80
2023-04-21T05:17:36.982Z,36.67
2023-04-21T05:20:06.004Z,34.80
2023-04-21T05:22:38.210Z,32.10
2023-04-21T05:25:07.571Z,35.67
2023-04-21T05:27:35.802Z,35.20
2023-04-21T05:30:04.090Z,34.73
2023-04-21T05:32:32.681Z,33.77
2023-04-21T05:35:01.178Z,35.27
2023-04-21T05:37:29.700Z,34.57
2023-04-21T05:39:59.423Z,34.53
2023-04-21T05:42:27.696Z,37.00
2023-04-21T05:44:56.022Z,36.27
2023-04-21T05:47:24.272Z,37.43
2023-04-21T05:49:53.877Z,35.60
2023-04-21T05:52:22.575Z,39.80
2023-04-21T05:54:50.871Z,35.63
2023-04-21T05:57:20.505Z,35.60
2023-04-21T05:59:48.792Z,35.30
2023-04-21T06:02:17.179Z,33.83
2023-04-21T06:04:45.661Z,33.50
2023-04-21T06:07:14.796Z,34.83
2023-04-21T06:09:44.239Z,33.60
2023-04-21T06:12:12.465Z,31.10
2023-04-21T06:14:42.059Z,31.80
2023-04-21T06:17:10.426Z,34.57
2023-04-21T06:19:40.834Z,30.37
2023-04-21T06:22:10.334Z,33.67
2023-04-21T06:24:38.607Z,33.30
2023-04-21T06:27:11.858Z,33.23
2023-04-21T06:29:42.694Z,33.77
2023-04-21T06:32:11.415Z,33.10
2023-04-21T06:34:39.753Z,31.70
2023-04-21T06:37:08.007Z,31.13
2023-04-21T06:39:36.437Z,30.50
2023-04-21T06:42:04.969Z,32.43
2023-04-21T06:44:41.065Z,28.00
2023-04-21T06:47:09.695Z,29.20
2023-04-21T06:49:38.219Z,29.07
2023-04-21T06:52:06.483Z,26.77
2023-04-21T06:54:34.787Z,29.10
2023-04-21T06:57:03.257Z,29.40
2023-04-21T06:59:31.474Z,28.97
2023-04-21T07:02:01.253Z,28.20
2023-04-21T07:04:32.303Z,26.77
2023-04-21T07:07:03.066Z,28.10
2023-04-21T07:09:33.855Z,27.83
2023-04-21T07:12:02.737Z,28.23
2023-04-21T07:14:31.037Z,27.93
2023-04-21T07:17:00.767Z,27.13
2023-04-21T07:19:29.069Z,25.43
2023-04-21T07:21:58.268Z,26.47
2023-04-21T07:24:26.518Z,25.20
2023-04-21T07:26:54.812Z,23.67
2023-04-21T07:29:23.102Z,23.07
2023-04-21T07:31:51.877Z,25.43
2023-04-21T07:34:21.528Z,24.33
2023-04-21T07:36:49.786Z,21.47
2023-04-21T07:39:18.266Z,21.13
2023-04-21T07:41:46.641Z,21.00
2023-04-21T07:44:15.141Z,25.87
2023-04-21T07:46:43.605Z,23.10
2023-04-21T07:49:11.941Z,22.47
2023-04-21T07:51:41.629Z,23.70
2023-04-21T07:54:10.147Z,23.33
2023-04-21T07:56:39.749Z,20.77
2023-04-21T07:59:08.131Z,22.07
2023-04-21T08:01:36.477Z,21.00
2023-04-21T08:04:04.825Z,20.87
2023-04-21T08:06:33.569Z,24.13
2023-04-21T08:09:03.607Z,23.70
2023-04-21T08:11:31.850Z,21.10
2023-04-21T08:14:00.140Z,21.00
2023-04-21T08:16:28.476Z,21.47
2023-04-21T08:18:56.890Z,22.40
2023-04-21T08:21:25.611Z,20.77
2023-04-21T08:23:55.628Z,20.43
2023-04-21T08:26:25.731Z,19.40
2023-04-21T08:28:54.247Z,19.83
2023-04-21T08:31:22.933Z,19.73
2023-04-21T08:34:01.184Z,18.77
2023-04-21T08:36:30.752Z,18.57
2023-04-21T08:38:59.196Z,18.13
2023-04-21T08:41:28.951Z,17.07
2023-04-21T08:43:57.217Z,17.33
2023-04-21T08:46:25.695Z,16.73
2023-04-21T08:48:55.437Z,17.83
2023-04-21T08:51:25.349Z,16.23
2023-04-21T08:53:55.589Z,15.70
2023-04-21T08:56:26.230Z,15.50
2023-04-21T08:58:55.968Z,17.00
2023-04-21T09:01:24.311Z,17.90
2023-04-21T09:03:52.850Z,18.37
2023-04-21T09:06:22.728Z,16.83
2023-04-21T09:08:56.002Z,15.93
2023-04-21T09:11:24.570Z,14.80
2023-04-21T09:13:53.014Z,15.23
2023-04-21T09:16:23.470Z,14.00
2023-04-21T09:18:52.180Z,16.20
2023-04-21T09:21:23.255Z,15.37
2023-04-21T09:23:53.553Z,14.60
2023-04-21T09:26:23.827Z,14.37
2023-04-21T09:28:53.278Z,14.90
2023-04-21T09:31:25.632Z,15.33
2023-04-21T09:33:59.672Z,14.87
2023-04-21T09:36:32.335Z,13.27
2023-04-21T09:39:29.137Z,13.40
2023-04-21T09:41:51.253Z,12.70
2023-04-21T09:44:21.446Z,12.43
2023-04-21T09:46:52.399Z,12.93
2023-04-21T09:49:24.099Z,12.73
2023-04-21T09:52:10.421Z,11.57
2023-04-21T09:54:50.788Z,11.15
2023-04-21T09:57:25.382Z,10.65
2023-04-21T09:59:58.952Z,11.48
2023-04-21T10:02:32.395Z,11.20
2023-04-21T10:05:01.139Z,12.40
2023-04-21T10:07:29.714Z,12.48
2023-04-21T10:09:59.294Z,13.45
2023-04-21T10:12:29.139Z,15.33
2023-04-21T10:14:58.041Z,14.48
2023-04-21T10:17:28.350Z,13.02
2023-04-21T10:19:58.302Z,12.63
2023-04-21T10:22:31.435Z,12.05
2023-04-21T10:25:01.145Z,11.27
2023-04-21T10:27:33.833Z,12.55
2023-04-21T10:30:20.403Z,11.02
2023-04-21T10:33:02.883Z,12.15
2023-04-21T10:36:02.369Z,13.90
2023-04-21T10:38:40.916Z,12.50
2023-04-21T10:41:27.998Z,12.35
2023-04-21T10:43:59.592Z,14.23
2023-04-21T10:46:35.508Z,12.82
2023-04-21T10:49:09.672Z,13.10
2023-04-21T10:52:06.507Z,13.52
2023-04-21T10:54:42.018Z,13.57
2023-04-21T10:57:12.129Z,11.77
2023-04-21T10:59:41.058Z,11.82
2023-04-21T11:02:12.062Z,10.73
2023-04-21T11:04:46.075Z,11.30
2023-04-21T11:07:17.193Z,11.88
2023-04-21T11:09:47.934Z,10.43
2023-04-21T11:12:19.824Z,11.15
2023-04-21T11:14:49.041Z,9.82
2023-04-21T11:17:19.018Z,9.65
2023-04-21T11:19:52.509Z,8.43
2023-04-21T11:22:23.484Z,10.02
2023-04-21T11:24:55.871Z,8.90
2023-04-21T11:27:24.687Z,8.32
2023-04-21T11:29:53.454Z,8.90
2023-04-21T11:32:22.510Z,9.85
2023-04-21T11:34:52.338Z,9.70
2023-04-21T11:37:25.995Z,9.45
2023-04-21T11:40:01.204Z,9.82
2023-04-21T11:42:29.937Z,12.15
2023-04-21T11:44:59.218Z,12.07
2023-04-21T11:47:28.964Z,10.98
2023-04-21T11:50:00.181Z,10.48
2023-04-21T11:52:30.948Z,10.70
2023-04-21T11:55:01.377Z,9.60
2023-04-21T11:57:31.226Z,10.57
2023-04-21T12:00:00.167Z,10.60
2023-04-21T12:02:30.973Z,10.32
2023-04-21T12:05:03.586Z,9.50
2023-04-21T12:07:32.998Z,12.00
2023-04-21T12:10:02.782Z,11.30
2023-04-21T12:12:31.828Z,9.93
2023-04-21T12:15:04.572Z,10.27
2023-04-21T12:17:38.482Z,11.27
2023-04-21T12:20:09.761Z,11.68
2023-04-21T12:22:38.188Z,11.57
2023-04-21T12:25:07.414Z,11.57
2023-04-21T12:27:35.807Z,11.35
2023-04-21T12:30:04.641Z,11.95
2023-04-21T12:32:33.279Z,14.35
2023-04-21T12:35:02.322Z,13.02
2023-04-21T12:37:32.155Z,13.38
2023-04-21T12:40:00.483Z,13.52
2023-04-21T12:42:28.739Z,14.35
2023-04-21T12:44:57.018Z,13.95
2023-04-21T12:47:25.409Z,13.65
2023-04-21T12:49:53.676Z,12.88
2023-04-21T12:52:22.009Z,11.38
2023-04-21T12:54:51.646Z,13.13
2023-04-21T12:57:20.385Z,11.38
2023-04-21T12:59:49.112Z,11.35
2023-04-21T13:02:17.763Z,13.65
2023-04-21T13:04:46.256Z,12.85
2023-04-21T13:07:16.182Z,13.23
2023-04-21T13:09:44.824Z,13.32
2023-04-21T13:12:14.467Z,12.77
2023-04-21T13:14:42.811Z,15.13
2023-04-21T13:17:11.339Z,14.07
2023-04-21T13:19:39.678Z,13.65
2023-04-21T13:22:08.049Z,13.27
2023-04-21T13:24:36.495Z,12.50
2023-04-21T13:27:04.863Z,13.32
2023-04-21T13:29:35.025Z,13.18
2023-04-21T13:32:03.508Z,11.43
2023-04-21T13:34:32.992Z,12.07
2023-04-21T13:37:01.658Z,10.40
2023-04-21T13:39:30.436Z,9.90
2023-04-21T13:41:58.900Z,10.13
2023-04-21T13:44:27.378Z,8.82
2023-04-21T13:46:57.447Z,8.35
2023-04-21T13:49:25.876Z,7.60
2023-04-21T13:51:54.131Z,7.00
2023-04-21T13:54:22.734Z,7.20
2023-04-21T13:56:51.156Z,8.35
2023-04-21T13:59:21.103Z,7.47
2023-04-21T14:01:49.461Z,7.43
2023-04-21T14:04:21.230Z,6.70
2023-04-21T14:06:51.577Z,6.97
2023-04-21T14:09:20.030Z,7.25
2023-04-21T14:11:48.837Z,8.23
2023-04-21T14:14:27.655Z,6.78
2023-04-21T14:17:05.750Z,7.25
2023-04-21T14:19:35.988Z,7.07
2023-04-21T14:22:04.643Z,6.38
2023-04-21T14:24:33.001Z,6.95
2023-04-21T14:27:01.287Z,5.90
2023-04-21T14:29:29.540Z,6.30
2023-04-21T14:32:00.789Z,7.03
2023-04-21T14:34:29.179Z,6.93
2023-04-21T14:36:59.788Z,7.28
2023-04-21T14:39:28.327Z,6.30
2023-04-21T14:41:57.012Z,7.63
2023-04-21T14:44:25.291Z,7.15
2023-04-21T14:47:05.464Z,6.47
2023-04-21T14:49:37.390Z,5.82
2023-04-21T14:52:07.904Z,6.32
2023-04-21T14:54:36.406Z,6.50
2023-04-21T14:57:18.789Z,6.07
2023-04-21T14:59:49.205Z,6.28
2023-04-21T15:02:17.651Z,5.68
2023-04-21T15:04:46.075Z,6.50
2023-04-21T15:07:19.884Z,5.15
2023-04-21T15:09:52.222Z,6.03
2023-04-21T15:12:20.582Z,5.78
2023-04-21T15:14:48.900Z,5.97
2023-04-21T15:17:17.169Z,5.43
2023-04-21T15:19:45.446Z,6.68
2023-04-21T15:22:15.543Z,6.63
2023-04-21T15:24:44.017Z,6.75
2023-04-21T15:27:12.610Z,6.20
2023-04-21T15:29:41.109Z,6.35
2023-04-21T15:32:09.631Z,5.70
2023-04-21T15:34:37.945Z,5.28
2023-04-21T15:37:06.817Z,5.10
2023-04-21T15:39:36.864Z,5.68
2023-04-21T15:42:05.801Z,6.30
2023-04-21T15:44:34.939Z,7.53
2023-04-21T15:47:03.325Z,6.70
2023-04-21T15:49:31.846Z,6.25
2023-04-21T15:52:00.239Z,4.97
2023-04-21T15:54:28.788Z,4.95
2023-04-21T15:56:58.743Z,5.55
2023-04-21T15:59:27.369Z,6.18
2023-04-21T16:01:56.875Z,6.68
2023-04-21T16:04:25.425Z,8.32
2023-04-21T16:06:54.051Z,7.65
2023-04-21T16:09:22.537Z,6.78
2023-04-21T16:11:51.528Z,6.65
2023-04-21T16:14:21.405Z,7.32
2023-04-21T16:16:49.746Z,6.38
2023-04-21T16:19:18.138Z,7.25
2023-04-21T16:21:46.442Z,7.22
2023-04-21T16:24:14.869Z,7.38
2023-04-21T16:26:43.226Z,6.90
2023-04-21T16:29:11.838Z,7.20
2023-04-21T16:31:41.590Z,6.40
2023-04-21T16:34:09.953Z,6.70
2023-04-21T16:36:38.262Z,6.60
2023-04-21T16:39:06.887Z,7.30
2023-04-21T16:41:35.168Z,7.50
2023-04-21T16:44:03.621Z,7.28
2023-04-21T16:46:31.991Z,6.90
2023-04-21T16:49:01.714Z,7.55
2023-04-21T16:51:29.993Z,6.63
2023-04-21T16:53:58.483Z,8.13
2023-04-21T16:56:26.788Z,8.05
2023-04-21T16:58:55.217Z,7.13
2023-04-21T17:01:23.546Z,8.32
2023-04-21T17:03:52.106Z,8.18
2023-04-21T17:06:21.959Z,7.85
2023-04-21T17:08:50.229Z,8.93
2023-04-21T17:11:18.544Z,9.52
2023-04-21T17:13:46.887Z,8.98
2023-04-21T17:16:15.239Z,8.18
2023-04-21T17:18:43.560Z,10.15
2023-04-21T17:21:12.687Z,11.10
2023-04-21T17:23:42.307Z,8.03
2023-04-21T17:26:13.130Z,8.77
2023-04-21T17:28:42.052Z,14.80
2023-04-21T17:31:15.595Z,10.37
2023-04-21T17:33:45.166Z,13.50
2023-04-21T17:36:13.551Z,16.00
2023-04-21T17:38:43.273Z,19.50
2023-04-21T17:41:11.727Z,20.70
2023-04-21T17:43:40.032Z,20.70
2023-04-21T17:46:09.225Z,19.60
2023-04-21T17:48:37.498Z,19.87
2023-04-21T17:51:05.905Z,19.20
2023-04-21T17:53:34.622Z,21.97
2023-04-21T17:56:04.332Z,20.73
2023-04-21T17:58:32.631Z,21.23
2023-04-21T18:01:00.947Z,21.00
2023-04-21T18:03:29.537Z,18.80
2023-04-21T18:05:58.430Z,18.87
2023-04-21T18:08:26.943Z,17.33
2023-04-21T18:10:56.018Z,15.83
2023-04-21T18:13:25.729Z,15.60
2023-04-21T18:15:54.058Z,16.57
2023-04-21T18:18:22.403Z,14.63
2023-04-21T18:20:50.688Z,14.90
2023-04-21T18:23:18.996Z,14.70
2023-04-21T18:25:47.651Z,15.10
2023-04-21T18:28:16.021Z,14.43
2023-04-21T18:30:45.686Z,14.13
2023-04-21T18:33:14.047Z,15.93
2023-04-21T18:35:42.944Z,14.73
2023-04-21T18:38:11.896Z,14.27
2023-04-21T18:40:41.385Z,16.23
2023-04-21T18:43:10.929Z,15.23
2023-04-21T18:45:39.648Z,18.57
2023-04-21T18:48:09.579Z,19.60
2023-04-21T18:50:40.325Z,20.40
2023-04-21T18:53:09.608Z,22.27
2023-04-21T18:55:38.482Z,25.73
2023-04-21T18:58:07.088Z,25.13
2023-04-21T19:00:38.827Z,22.80
2023-04-21T19:03:07.779Z,22.57
2023-04-21T19:05:40.492Z,24.83
2023-04-21T19:08:10.326Z,24.73
2023-04-21T19:10:39.181Z,25.73
2023-04-21T19:13:07.506Z,26.00
2023-04-21T19:15:36.686Z,28.13
2023-04-21T19:18:05.292Z,29.67
2023-04-21T19:20:35.655Z,28.53
2023-04-21T19:23:06.130Z,26.70
2023-04-21T19:25:34.887Z,24.53
2023-04-21T19:28:03.243Z,22.13
2023-04-21T19:30:31.612Z,21.47
2023-04-21T19:32:59.873Z,24.07
2023-04-21T19:35:28.801Z,24.50
2023-04-21T19:37:57.072Z,24.13
2023-04-21T19:40:27.036Z,22.70
2023-04-21T19:42:55.748Z,20.47
2023-04-21T19:45:24.066Z,21.07
2023-04-21T19:47:52.724Z,18.93
2023-04-21T19:50:21.400Z,20.47
2023-04-21T19:52:49.676Z,19.60
2023-04-21T19:55:17.959Z,20.03
2023-04-21T19:57:47.586Z,26.17
2023-04-21T20:00:16.878Z,26.10
2023-04-21T20:02:45.294Z,29.07
2023-04-21T20:05:14.039Z,32.37
2023-04-21T20:07:42.315Z,32.73
2023-04-21T20:10:11.856Z,34.87
2023-04-21T20:12:40.205Z,35.17
2023-04-21T20:15:11.916Z,35.27
2023-04-21T20:17:41.490Z,36.73
2023-04-21T20:20:11.044Z,34.63
2023-04-21T20:22:39.495Z,38.03
2023-04-21T20:25:08.555Z,38.07
2023-04-21T20:27:36.841Z,37.20
2023-04-21T20:30:05.955Z,39.60
2023-04-21T20:32:36.613Z,36.90
2023-04-21T20:35:05.706Z,41.00
2023-04-21T20:37:34.278Z,41.07
2023-04-21T20:40:04.628Z,39.57
2023-04-21T20:42:33.446Z,39.73
2023-04-21T20:45:03.637Z,42.37
2023-04-21T20:47:35.926Z,37.07
2023-04-21T20:50:04.884Z,38.00
2023-04-21T20:52:33.196Z,35.13
2023-04-21T20:55:01.567Z,32.70
2023-04-21T20:57:30.287Z,36.13
2023-04-21T20:59:58.501Z,34.70
2023-04-21T21:02:27.009Z,30.33
2023-04-21T21:04:56.760Z,33.03
2023-04-21T21:07:25.390Z,31.07
2023-04-21T21:09:53.711Z,31.60
2023-04-21T21:12:22.261Z,33.33
2023-04-21T21:14:50.525Z,33.00
2023-04-21T21:17:18.908Z,35.20
2023-04-21T21:19:47.177Z,35.27
2023-04-21T21:22:16.849Z,32.70
2023-04-21T21:24:45.099Z,34.10
2023-04-21T21:27:13.528Z,30.40
2023-04-21T21:29:41.950Z,29.23
2023-04-21T21:32:10.281Z,31.33
2023-04-21T21:34:38.765Z,29.63
2023-04-21T21:37:07.026Z,30.90
2023-04-21T21:39:36.895Z,29.10
2023-04-21T21:42:05.828Z,31.50
2023-04-21T21:44:34.063Z,31.43
2023-04-21T21:47:02.338Z,30.13
2023-04-21T21:49:30.605Z,29.73
2023-04-21T21:51:58.969Z,27.97
2023-04-21T21:54:27.175Z,30.00
2023-04-21T21:56:57.651Z,28.00
2023-04-21T21:59:26.199Z,28.43
2023-04-21T22:01:54.567Z,30.47
2023-04-21T22:04:22.870Z,30.13
2023-04-21T22:06:52.008Z,32.70
2023-04-21T22:09:21.017Z,32.30
2023-04-21T22:11:49.379Z,33.13
2023-04-21T22:14:23.504Z,32.47
2023-04-21T22:16:54.007Z,28.47
2023-04-21T22:19:22.689Z,32.00
2023-04-21T22:21:50.997Z,32.00
2023-04-21T22:24:19.560Z,35.63
2023-04-21T22:26:48.350Z,39.67
2023-04-21T22:29:17.994Z,36.37
2023-04-21T22:31:46.357Z,35.27
2023-04-21T22:34:15.096Z,32.10
2023-04-21T22:36:43.520Z,33.23
2023-04-21T22:39:11.818Z,35.97
2023-04-21T22:41:40.290Z,35.53
2023-04-21T22:44:08.668Z,35.93
2023-04-21T22:46:38.432Z,38.13
2023-04-21T22:49:06.773Z,40.80
2023-04-21T22:51:35.067Z,38.03
2023-04-21T22:54:03.472Z,38.97
2023-04-21T22:56:32.093Z,42.07
2023-04-21T22:59:00.776Z,39.97
2023-04-21T23:01:29.195Z,37.83
2023-04-21T23:03:59.103Z,39.27
2023-04-21T23:06:28.415Z,39.47
2023-04-21T23:08:56.771Z,40.50
2023-04-21T23:11:25.344Z,38.80
2023-04-21T23:13:53.671Z,40.37
2023-04-21T23:16:21.955Z,41.77
2023-04-21T23:18:50.236Z,41.50
2023-04-21T23:21:19.897Z,43.47
2023-04-21T23:23:48.112Z,42.43
2023-04-21T23:26:16.364Z,42.17
2023-04-21T23:28:44.633Z,46.47
2023-04-21T23:31:12.914Z,38.70
2023-04-21T23:33:41.252Z,41.03
2023-04-21T23:36:09.675Z,37.23
2023-04-21T23:38:39.297Z,40.37
2023-04-21T23:41:07.636Z,40.27
2023-04-21T23:43:37.289Z,41.90
2023-04-21T23:46:05.613Z,41.43
2023-04-21T23:48:34.847Z,39.07
2023-04-21T23:51:03.219Z,40.40
2023-04-21T23:53:31.621Z,41.10
2023-04-21T23:56:01.403Z,38.27
2023-04-21T23:58:29.650Z,38.00
